createdAt,value
2023-06-23T00:00:48.056Z,40.84
2023-06-23T00:01:48.153Z,38.19
2023-06-23T00:02:48.124Z,38.16
2023-06-23T00:03:48.101Z,40.75
2023-06-23T00:04:48.031Z,41.23
2023-06-23T00:05:48.038Z,43.19
2023-06-23T00:06:48.227Z,40.21
2023-06-23T00:07:48.011Z,43.52
2023-06-23T00:08:48.008Z,39.57
2023-06-23T00:09:47.990Z,42.62
2023-06-23T00:10:48.010Z,44.17
2023-06-23T00:11:47.981Z,47.05
2023-06-23T00:12:47.973Z,39.03
2023-06-23T00:13:47.962Z,38.60
2023-06-23T00:14:47.984Z,43.53
2023-06-23T00:15:48.211Z,40.90
2023-06-23T00:16:47.964Z,40.29
2023-06-23T00:17:48.067Z,42.35
2023-06-23T00:18:47.933Z,41.35
2023-06-23T00:19:48.323Z,44.41
2023-06-23T00:20:47.934Z,42.01
2023-06-23T00:21:48.148Z,40.36
2023-06-23T00:22:47.914Z,43.07
2023-06-23T00:23:47.899Z,43.30
2023-06-23T00:24:47.899Z,40.21
2023-06-23T00:25:47.901Z,40.61
2023-06-23T00:26:47.873Z,41.96
2023-06-23T00:27:47.865Z,38.86
2023-06-23T00:28:47.867Z,42.62
2023-06-23T00:29:47.867Z,41.68
2023-06-23T00:30:47.869Z,40.38
2023-06-23T00:31:47.863Z,38.92
2023-06-23T00:32:47.865Z,47.90
2023-06-23T00:33:47.826Z,45.19
2023-06-23T00:34:47.856Z,40.04
2023-06-23T00:35:47.822Z,41.50
2023-06-23T00:36:47.801Z,39.19
2023-06-23T00:37:47.798Z,38.94
2023-06-23T00:38:47.812Z,41.05
2023-06-23T00:39:47.793Z,42.40
2023-06-23T00:40:47.788Z,39.18
2023-06-23T00:41:47.778Z,41.51
2023-06-23T00:42:47.818Z,41.90
2023-06-23T00:43:47.776Z,43.77
2023-06-23T00:44:47.751Z,44.22
2023-06-23T00:45:47.747Z,45.38
2023-06-23T00:46:47.744Z,43.04
2023-06-23T00:47:47.765Z,42.20
2023-06-23T00:48:47.721Z,49.10
2023-06-23T00:49:47.716Z,43.94
2023-06-23T00:50:47.718Z,42.16
2023-06-23T00:51:47.709Z,44.90
2023-06-23T00:52:47.721Z,41.22
2023-06-23T00:53:47.699Z,39.91
2023-06-23T00:54:47.724Z,40.30
2023-06-23T00:55:47.678Z,45.39
2023-06-23T00:56:47.676Z,48.54
2023-06-23T00:57:47.674Z,40.48
2023-06-23T00:58:47.676Z,41.82
2023-06-23T00:59:47.660Z,44.94
2023-06-23T01:00:47.639Z,39.35
2023-06-23T01:01:47.652Z,39.48
2023-06-23T01:02:47.724Z,41.74
2023-06-23T01:03:47.760Z,41.50
2023-06-23T01:04:47.618Z,41.10
2023-06-23T01:05:47.626Z,41.24
2023-06-23T01:06:47.600Z,40.27
2023-06-23T01:07:47.594Z,39.06
2023-06-23T01:08:47.614Z,40.22
2023-06-23T01:09:47.583Z,45.86
2023-06-23T01:10:47.595Z,41.01
2023-06-23T01:11:47.587Z,44.52
2023-06-23T01:12:47.569Z,42.36
2023-06-23T01:13:47.549Z,39.94
2023-06-23T01:14:47.556Z,40.06
2023-06-23T01:15:47.560Z,40.24
2023-06-23T01:16:47.532Z,42.35
2023-06-23T01:17:47.548Z,43.03
2023-06-23T01:18:47.528Z,46.33
2023-06-23T01:19:47.521Z,45.73
2023-06-23T01:20:47.523Z,42.23
2023-06-23T01:21:47.496Z,44.17
2023-06-23T01:22:47.506Z,46.96
2023-06-23T01:23:47.485Z,42.48
2023-06-23T01:24:47.502Z,41.73
2023-06-23T01:25:47.497Z,43.01
2023-06-23T01:26:47.462Z,44.76
2023-06-23T01:27:47.454Z,40.16
2023-06-23T01:28:47.454Z,44.62
2023-06-23T01:29:47.465Z,40.93
2023-06-23T01:30:47.438Z,42.42
2023-06-23T01:31:47.517Z,43.15
2023-06-23T01:32:47.503Z,39.24
2023-06-23T01:33:47.417Z,40.16
2023-06-23T01:34:47.497Z,40.93
2023-06-23T01:35:47.412Z,41.15
2023-06-23T01:36:47.386Z,42.13
2023-06-23T01:37:47.426Z,41.84
2023-06-23T01:38:47.414Z,38.30
2023-06-23T01:39:47.402Z,40.84
2023-06-23T01:40:47.366Z,38.34
2023-06-23T01:41:47.357Z,39.54
2023-06-23T01:42:47.378Z,40.11
2023-06-23T01:43:47.366Z,42.19
2023-06-23T01:44:47.340Z,41.10
2023-06-23T01:45:47.327Z,39.59
2023-06-23T01:46:47.352Z,39.80
2023-06-23T01:47:47.372Z,39.73
2023-06-23T01:48:47.342Z,43.36
2023-06-23T01:49:47.307Z,45.81
2023-06-23T01:50:47.305Z,42.01
2023-06-23T01:51:47.286Z,42.89
2023-06-23T01:52:47.305Z,41.63
2023-06-23T01:53:47.291Z,40.55
2023-06-23T01:54:47.267Z,42.21
2023-06-23T01:55:47.314Z,42.38
2023-06-23T01:56:47.260Z,45.08
2023-06-23T01:57:47.276Z,39.32
2023-06-23T01:58:47.250Z,40.09
2023-06-23T01:59:47.237Z,41.29
2023-06-23T02:00:47.231Z,39.70
2023-06-23T02:01:47.258Z,44.72
2023-06-23T02:02:47.351Z,39.99
2023-06-23T02:03:47.327Z,39.06
2023-06-23T02:04:47.287Z,43.16
2023-06-23T02:05:47.204Z,43.28
2023-06-23T02:06:47.236Z,41.77
2023-06-23T02:07:47.214Z,40.90
2023-06-23T02:08:47.172Z,40.87
2023-06-23T02:09:47.192Z,42.47
2023-06-23T02:10:47.163Z,40.40
2023-06-23T02:11:47.166Z,41.67
2023-06-23T02:12:47.155Z,38.72
2023-06-23T02:13:47.148Z,40.50
2023-06-23T02:14:47.140Z,44.92
2023-06-23T02:15:47.127Z,39.83
2023-06-23T02:16:47.157Z,39.78
2023-06-23T02:17:47.156Z,40.16
2023-06-23T02:18:47.114Z,42.95
2023-06-23T02:19:47.110Z,41.48
2023-06-23T02:20:47.119Z,41.56
2023-06-23T02:21:47.103Z,42.63
2023-06-23T02:22:47.082Z,43.48
2023-06-23T02:23:47.073Z,45.55
2023-06-23T02:24:47.069Z,46.07
2023-06-23T02:25:47.077Z,45.57
2023-06-23T02:26:47.049Z,45.61
2023-06-23T02:27:47.051Z,45.10
2023-06-23T02:28:47.036Z,45.34
2023-06-23T02:29:47.035Z,47.58
2023-06-23T02:30:47.072Z,45.24
2023-06-23T02:31:47.142Z,44.22
2023-06-23T02:32:47.208Z,43.54
2023-06-23T02:33:47.161Z,45.71
2023-06-23T02:34:47.027Z,45.27
2023-06-23T02:35:46.991Z,46.28
2023-06-23T02:36:46.995Z,47.32
2023-06-23T02:37:46.973Z,45.75
2023-06-23T02:38:46.984Z,44.74
2023-06-23T02:39:46.993Z,45.54
2023-06-23T02:40:46.952Z,46.57
2023-06-23T02:41:46.948Z,44.38
2023-06-23T02:42:46.940Z,43.48
2023-06-23T02:43:46.930Z,43.06
2023-06-23T02:44:46.942Z,44.09
2023-06-23T02:45:46.932Z,44.48
2023-06-23T02:46:46.918Z,42.99
2023-06-23T02:47:46.939Z,46.44
2023-06-23T02:48:47.125Z,43.54
2023-06-23T02:49:46.909Z,45.43
2023-06-23T02:50:46.881Z,44.62
2023-06-23T02:51:46.892Z,43.75
2023-06-23T02:52:46.872Z,45.93
2023-06-23T02:53:46.890Z,42.44
2023-06-23T02:54:46.856Z,43.76
2023-06-23T02:55:46.863Z,44.10
2023-06-23T02:56:46.855Z,43.54
2023-06-23T02:57:46.835Z,45.99
2023-06-23T02:58:46.843Z,47.10
2023-06-23T02:59:46.828Z,44.84
2023-06-23T03:00:46.973Z,43.77
2023-06-23T03:01:46.809Z,43.82
2023-06-23T03:02:46.937Z,47.01
2023-06-23T03:03:46.867Z,45.07
2023-06-23T03:04:46.793Z,42.67
2023-06-23T03:05:46.768Z,44.28
2023-06-23T03:06:46.770Z,47.83
2023-06-23T03:07:46.788Z,43.43
2023-06-23T03:08:46.765Z,43.82
2023-06-23T03:09:46.774Z,43.87
2023-06-23T03:10:46.747Z,45.50
2023-06-23T03:11:46.739Z,48.83
2023-06-23T03:12:46.742Z,46.75
2023-06-23T03:13:46.719Z,45.14
2023-06-23T03:14:46.714Z,46.64
2023-06-23T03:15:46.708Z,44.61
2023-06-23T03:16:46.736Z,44.48
2023-06-23T03:17:46.775Z,42.62
2023-06-23T03:18:46.686Z,42.84
2023-06-23T03:19:46.691Z,43.04
2023-06-23T03:20:46.679Z,43.36
2023-06-23T03:21:46.692Z,47.01
2023-06-23T03:22:46.658Z,45.15
2023-06-23T03:23:46.657Z,46.40
2023-06-23T03:24:46.655Z,44.94
2023-06-23T03:25:46.629Z,42.90
2023-06-23T03:26:46.664Z,42.26
2023-06-23T03:27:46.696Z,44.12
2023-06-23T03:28:46.618Z,48.23
2023-06-23T03:29:46.658Z,45.27
2023-06-23T03:30:46.793Z,44.35
2023-06-23T03:31:47.612Z,44.69
2023-06-23T03:32:46.621Z,47.00
2023-06-23T03:33:46.579Z,46.97
2023-06-23T03:34:46.588Z,47.10
2023-06-23T03:35:46.589Z,45.82
2023-06-23T03:36:46.556Z,45.46
2023-06-23T03:37:46.569Z,46.29
2023-06-23T03:38:46.554Z,46.61
2023-06-23T03:39:46.556Z,46.66
2023-06-23T03:40:46.558Z,46.30
2023-06-23T03:41:46.528Z,46.60
2023-06-23T03:42:46.524Z,46.90
2023-06-23T03:43:46.516Z,46.84
2023-06-23T03:44:46.533Z,46.92
2023-06-23T03:45:46.515Z,47.86
2023-06-23T03:46:46.650Z,46.29
2023-06-23T03:47:46.555Z,46.68
2023-06-23T03:48:46.486Z,46.20
2023-06-23T03:49:46.493Z,43.65
2023-06-23T03:50:46.469Z,42.45
2023-06-23T03:51:46.455Z,44.95
2023-06-23T03:52:46.456Z,43.55
2023-06-23T03:53:46.448Z,42.92
2023-06-23T03:54:46.483Z,41.92
2023-06-23T03:55:46.430Z,43.85
2023-06-23T03:56:46.416Z,45.95
2023-06-23T03:57:46.412Z,46.11
2023-06-23T03:58:46.436Z,52.31
2023-06-23T03:59:46.432Z,47.29
2023-06-23T04:00:46.390Z,47.29
2023-06-23T04:01:46.461Z,45.44
2023-06-23T04:02:46.405Z,43.64
2023-06-23T04:03:46.421Z,45.16
2023-06-23T04:04:46.369Z,44.69
2023-06-23T04:05:46.374Z,43.11
2023-06-23T04:06:46.364Z,44.98
2023-06-23T04:07:46.361Z,45.12
2023-06-23T04:08:46.362Z,44.77
2023-06-23T04:09:46.348Z,44.13
2023-06-23T04:10:46.328Z,43.75
2023-06-23T04:11:46.309Z,46.19
2023-06-23T04:12:46.309Z,47.59
2023-06-23T04:13:46.318Z,45.85
2023-06-23T04:14:46.298Z,45.71
2023-06-23T04:15:46.285Z,45.68
2023-06-23T04:16:46.278Z,49.39
2023-06-23T04:17:46.304Z,47.65
2023-06-23T04:18:46.276Z,47.85
2023-06-23T04:19:46.252Z,51.27
2023-06-23T04:20:46.251Z,47.11
2023-06-23T04:21:46.260Z,45.68
2023-06-23T04:22:46.264Z,48.07
2023-06-23T04:23:46.227Z,48.76
2023-06-23T04:24:46.218Z,46.79
2023-06-23T04:25:46.265Z,46.67
2023-06-23T04:26:46.222Z,48.53
2023-06-23T04:27:46.199Z,49.64
2023-06-23T04:28:46.197Z,48.38
2023-06-23T04:29:46.182Z,48.58
2023-06-23T04:30:47.205Z,48.12
2023-06-23T04:31:46.213Z,49.28
2023-06-23T04:32:46.176Z,48.17
2023-06-23T04:33:46.166Z,49.29
2023-06-23T04:34:46.147Z,49.92
2023-06-23T04:35:46.256Z,51.30
2023-06-23T04:36:46.152Z,46.24
2023-06-23T04:37:46.185Z,46.96
2023-06-23T04:38:46.131Z,49.43
2023-06-23T04:39:46.117Z,48.81
2023-06-23T04:40:46.136Z,50.41
2023-06-23T04:41:46.138Z,47.56
2023-06-23T04:42:46.094Z,46.84
2023-06-23T04:43:46.110Z,45.84
2023-06-23T04:44:46.098Z,47.91
2023-06-23T04:45:46.138Z,48.32
2023-06-23T04:46:46.059Z,51.17
2023-06-23T04:47:46.094Z,48.29
2023-06-23T04:48:46.065Z,46.00
2023-06-23T04:49:46.059Z,45.09
2023-06-23T04:50:46.043Z,47.90
2023-06-23T04:51:46.061Z,45.04
2023-06-23T04:52:46.023Z,47.26
2023-06-23T04:53:46.013Z,48.07
2023-06-23T04:54:46.030Z,48.77
2023-06-23T04:55:46.017Z,46.40
2023-06-23T04:56:45.991Z,48.34
2023-06-23T04:57:45.982Z,48.20
2023-06-23T04:58:45.979Z,46.77
2023-06-23T04:59:45.973Z,49.08
2023-06-23T05:00:45.987Z,48.78
2023-06-23T05:01:46.122Z,46.46
2023-06-23T05:02:46.085Z,48.41
2023-06-23T05:03:46.062Z,47.58
2023-06-23T05:04:45.943Z,47.44
2023-06-23T05:05:45.941Z,51.43
2023-06-23T05:06:45.926Z,48.39
2023-06-23T05:07:45.933Z,49.80
2023-06-23T05:08:45.951Z,48.12
2023-06-23T05:09:45.916Z,47.80
2023-06-23T05:10:45.907Z,49.73
2023-06-23T05:11:45.908Z,48.83
2023-06-23T05:12:45.904Z,50.09
2023-06-23T05:13:46.031Z,48.32
2023-06-23T05:14:45.887Z,49.48
2023-06-23T05:15:47.533Z,51.89
2023-06-23T05:16:45.876Z,50.14
2023-06-23T05:17:45.973Z,51.80
2023-06-23T05:18:45.848Z,53.25
2023-06-23T05:19:45.852Z,53.22
2023-06-23T05:20:45.834Z,52.90
2023-06-23T05:21:45.828Z,50.91
2023-06-23T05:22:45.834Z,52.07
2023-06-23T05:23:52.848Z,50.85
2023-06-23T05:24:47.793Z,51.39
2023-06-23T05:25:45.788Z,52.68
2023-06-23T05:26:45.807Z,52.63
2023-06-23T05:27:45.812Z,52.85
2023-06-23T05:28:45.770Z,50.03
2023-06-23T05:29:46.783Z,49.67
2023-06-23T05:30:45.791Z,51.07
2023-06-23T05:31:45.999Z,49.51
2023-06-23T05:32:45.942Z,49.45
2023-06-23T05:33:45.761Z,54.66
2023-06-23T05:34:45.738Z,49.58
2023-06-23T05:35:47.984Z,49.03
2023-06-23T05:36:46.733Z,50.11
2023-06-23T05:37:45.710Z,47.61
2023-06-23T05:38:45.694Z,47.00
2023-06-23T05:39:45.689Z,48.13
2023-06-23T05:40:45.726Z,48.29
2023-06-23T05:41:45.723Z,49.43
2023-06-23T05:42:45.695Z,48.76
2023-06-23T05:43:45.673Z,47.92
2023-06-23T05:44:45.667Z,49.61
2023-06-23T05:45:45.674Z,48.49
2023-06-23T05:46:45.694Z,49.83
2023-06-23T05:47:45.712Z,52.41
2023-06-23T05:48:45.680Z,50.97
2023-06-23T05:49:48.089Z,49.74
2023-06-23T05:50:46.624Z,46.15
2023-06-23T05:51:45.619Z,49.42
2023-06-23T05:52:45.596Z,50.28
2023-06-23T05:53:45.586Z,46.38
2023-06-23T05:54:45.583Z,48.32
2023-06-23T05:55:45.603Z,49.35
2023-06-23T05:56:45.569Z,50.74
2023-06-23T05:57:45.555Z,52.08
2023-06-23T05:58:45.738Z,47.20
2023-06-23T05:59:45.574Z,47.60
2023-06-23T06:00:45.648Z,49.23
2023-06-23T06:01:45.537Z,48.34
2023-06-23T06:02:45.675Z,48.93
2023-06-23T06:03:45.604Z,50.34
2023-06-23T06:04:45.518Z,50.04
2023-06-23T06:05:45.507Z,47.44
2023-06-23T06:06:45.538Z,49.26
2023-06-23T06:07:45.490Z,50.99
2023-06-23T06:08:45.502Z,48.93
2023-06-23T06:09:45.481Z,50.63
2023-06-23T06:10:45.470Z,49.58
2023-06-23T06:11:45.482Z,50.68
2023-06-23T06:12:45.463Z,47.40
2023-06-23T06:13:45.457Z,47.25
2023-06-23T06:14:45.451Z,48.91
2023-06-23T06:15:45.535Z,49.12
2023-06-23T06:16:45.446Z,50.88
2023-06-23T06:17:45.498Z,49.26
2023-06-23T06:18:46.245Z,48.06
2023-06-23T06:19:45.415Z,48.79
2023-06-23T06:20:45.413Z,51.04
2023-06-23T06:21:45.412Z,48.08
2023-06-23T06:22:45.412Z,48.98
2023-06-23T06:23:45.407Z,51.27
2023-06-23T06:24:45.378Z,52.10
2023-06-23T06:25:45.885Z,48.45
2023-06-23T06:26:46.355Z,49.10
2023-06-23T06:27:45.414Z,49.45
2023-06-23T06:28:45.416Z,49.22
2023-06-23T06:29:45.344Z,47.36
2023-06-23T06:30:45.418Z,51.48
2023-06-23T06:31:45.319Z,50.71
2023-06-23T06:32:45.431Z,48.72
2023-06-23T06:33:45.332Z,50.06
2023-06-23T06:34:45.303Z,52.54
2023-06-23T06:35:45.304Z,51.79
2023-06-23T06:36:45.622Z,51.38
2023-06-23T06:37:45.287Z,52.88
2023-06-23T06:38:45.274Z,50.35
2023-06-23T06:39:45.269Z,50.95
2023-06-23T06:40:45.267Z,50.64
2023-06-23T06:41:45.264Z,49.44
2023-06-23T06:42:45.276Z,51.49
2023-06-23T06:43:45.258Z,50.66
2023-06-23T06:44:45.232Z,51.46
2023-06-23T06:45:45.251Z,50.70
2023-06-23T06:46:45.229Z,51.60
2023-06-23T06:47:45.227Z,50.71
2023-06-23T06:48:45.209Z,53.54
2023-06-23T06:49:45.192Z,49.08
2023-06-23T06:50:45.207Z,48.72
2023-06-23T06:51:45.202Z,50.01
2023-06-23T06:52:46.140Z,50.94
2023-06-23T06:53:46.175Z,52.05
2023-06-23T06:54:45.176Z,49.72
2023-06-23T06:55:45.167Z,50.63
2023-06-23T06:56:45.138Z,49.89
2023-06-23T06:57:45.128Z,50.00
2023-06-23T06:58:45.230Z,50.07
2023-06-23T06:59:45.133Z,51.00
2023-06-23T07:00:45.130Z,50.65
2023-06-23T07:01:45.162Z,50.34
2023-06-23T07:02:45.169Z,53.68
2023-06-23T07:03:45.204Z,49.70
2023-06-23T07:04:45.107Z,48.80
2023-06-23T07:05:45.108Z,48.36
2023-06-23T07:06:45.075Z,49.25
2023-06-23T07:07:45.080Z,49.13
2023-06-23T07:08:45.073Z,51.39
2023-06-23T07:09:45.073Z,51.59
2023-06-23T07:10:45.047Z,49.22
2023-06-23T07:11:45.037Z,48.69
2023-06-23T07:12:45.027Z,48.91
2023-06-23T07:13:45.051Z,48.67
2023-06-23T07:14:45.075Z,47.92
2023-06-23T07:15:45.063Z,53.18
2023-06-23T07:16:45.004Z,48.88
2023-06-23T07:17:45.028Z,50.85
2023-06-23T07:18:44.996Z,50.66
2023-06-23T07:19:44.977Z,51.28
2023-06-23T07:20:44.974Z,48.73
2023-06-23T07:21:44.964Z,48.37
2023-06-23T07:22:44.956Z,50.03
2023-06-23T07:23:44.996Z,49.82
2023-06-23T07:24:44.951Z,49.31
2023-06-23T07:25:44.949Z,48.59
2023-06-23T07:26:44.935Z,49.76
2023-06-23T07:27:44.949Z,50.31
2023-06-23T07:28:44.989Z,52.52
2023-06-23T07:29:44.922Z,51.10
2023-06-23T07:30:44.975Z,49.65
2023-06-23T07:31:44.971Z,48.53
2023-06-23T07:32:44.968Z,48.05
2023-06-23T07:33:44.888Z,49.21
2023-06-23T07:34:44.891Z,48.22
2023-06-23T07:35:44.860Z,48.38
2023-06-23T07:36:45.864Z,52.07
2023-06-23T07:37:44.875Z,49.95
2023-06-23T07:38:44.843Z,48.63
2023-06-23T07:39:44.839Z,47.43
2023-06-23T07:40:44.848Z,49.72
2023-06-23T07:41:44.846Z,49.06
2023-06-23T07:42:44.839Z,50.47
2023-06-23T07:43:44.818Z,51.43
2023-06-23T07:44:44.815Z,50.51
2023-06-23T07:45:44.869Z,47.59
2023-06-23T07:46:44.937Z,48.74
2023-06-23T07:47:44.802Z,51.52
2023-06-23T07:48:44.777Z,47.79
2023-06-23T07:49:44.781Z,48.13
2023-06-23T07:50:44.787Z,45.87
2023-06-23T07:51:44.775Z,48.94
2023-06-23T07:52:44.757Z,50.39
2023-06-23T07:53:58.394Z,46.35
2023-06-23T07:54:46.755Z,45.42
2023-06-23T07:55:44.745Z,48.20
2023-06-23T07:56:44.748Z,50.26
2023-06-23T07:57:44.714Z,49.18
2023-06-23T07:58:44.698Z,48.81
2023-06-23T07:59:44.711Z,47.57
2023-06-23T08:00:44.715Z,48.90
2023-06-23T08:01:44.691Z,50.02
2023-06-23T08:02:44.844Z,47.85
2023-06-23T08:03:44.787Z,49.62
2023-06-23T08:04:44.708Z,48.32
2023-06-23T08:05:44.685Z,47.19
2023-06-23T08:06:44.647Z,48.06
2023-06-23T08:07:44.648Z,46.92
2023-06-23T08:08:44.664Z,46.85
2023-06-23T08:09:44.642Z,48.17
2023-06-23T08:10:44.660Z,48.14
2023-06-23T08:11:44.626Z,50.09
2023-06-23T08:12:44.639Z,51.87
2023-06-23T08:13:44.629Z,48.68
2023-06-23T08:14:45.634Z,48.22
2023-06-23T08:15:44.602Z,50.07
2023-06-23T08:16:44.651Z,50.38
2023-06-23T08:17:44.589Z,51.55
2023-06-23T08:18:44.562Z,49.40
2023-06-23T08:19:44.584Z,48.05
2023-06-23T08:20:44.600Z,47.61
2023-06-23T08:21:44.555Z,49.75
2023-06-23T08:22:44.546Z,49.54
2023-06-23T08:23:44.557Z,49.24
2023-06-23T08:24:44.546Z,49.82
2023-06-23T08:25:44.514Z,47.24
2023-06-23T08:26:44.510Z,47.85
2023-06-23T08:27:44.498Z,49.35
2023-06-23T08:28:44.568Z,47.43
2023-06-23T08:29:44.491Z,49.21
2023-06-23T08:30:44.499Z,48.21
2023-06-23T08:31:44.654Z,48.05
2023-06-23T08:32:44.503Z,49.65
2023-06-23T08:33:44.483Z,50.76
2023-06-23T08:34:44.489Z,50.98
2023-06-23T08:35:44.480Z,48.65
2023-06-23T08:36:44.440Z,48.15
2023-06-23T08:37:44.432Z,49.30
2023-06-23T08:38:44.449Z,47.52
2023-06-23T08:39:44.411Z,49.37
2023-06-23T08:40:44.416Z,49.16
2023-06-23T08:41:44.405Z,49.49
2023-06-23T08:42:44.424Z,49.47
2023-06-23T08:43:44.419Z,47.96
2023-06-23T08:44:44.386Z,47.54
2023-06-23T08:45:44.378Z,47.07
2023-06-23T08:47:04.204Z,48.53
2023-06-23T08:47:46.456Z,48.56
2023-06-23T08:48:44.379Z,48.71
2023-06-23T08:49:44.357Z,52.34
2023-06-23T08:50:44.334Z,50.33
2023-06-23T08:51:44.323Z,48.54
2023-06-23T08:52:44.472Z,48.21
2023-06-23T08:53:44.321Z,46.83
2023-06-23T08:54:44.321Z,46.93
2023-06-23T08:55:44.457Z,48.26
2023-06-23T08:56:44.310Z,48.40
2023-06-23T08:57:44.305Z,46.87
2023-06-23T08:58:44.433Z,48.15
2023-06-23T08:59:44.279Z,49.68
2023-06-23T09:00:44.273Z,47.64
2023-06-23T09:01:44.299Z,46.63
2023-06-23T09:02:44.362Z,47.23
2023-06-23T09:03:44.311Z,47.19
2023-06-23T09:04:44.239Z,47.44
2023-06-23T09:05:45.107Z,48.44
2023-06-23T09:06:44.308Z,47.33
2023-06-23T09:07:44.258Z,49.37
2023-06-23T09:08:44.210Z,48.80
2023-06-23T09:09:44.199Z,49.84
2023-06-23T09:10:44.222Z,47.97
2023-06-23T09:11:44.218Z,50.36
2023-06-23T09:12:44.175Z,49.19
2023-06-23T09:13:44.192Z,50.70
2023-06-23T09:14:44.171Z,50.29
2023-06-23T09:16:00.009Z,46.95
2023-06-23T09:16:46.150Z,46.73
2023-06-23T09:17:44.218Z,46.90
2023-06-23T09:18:44.146Z,46.83
2023-06-23T09:19:44.151Z,49.83
2023-06-23T09:20:46.337Z,47.82
2023-06-23T09:21:44.316Z,50.12
2023-06-23T09:22:45.174Z,48.97
2023-06-23T09:23:44.102Z,46.84
2023-06-23T09:24:44.125Z,47.93
2023-06-23T09:25:44.085Z,48.11
2023-06-23T09:26:44.088Z,48.35
2023-06-23T09:27:44.088Z,50.81
2023-06-23T09:28:44.067Z,49.02
2023-06-23T09:29:44.092Z,47.12
2023-06-23T09:30:44.077Z,46.84
2023-06-23T09:31:44.075Z,46.98
2023-06-23T09:32:44.095Z,46.41
2023-06-23T09:33:44.053Z,46.74
2023-06-23T09:34:44.057Z,46.62
2023-06-23T09:35:44.019Z,46.45
2023-06-23T09:36:44.013Z,47.27
2023-06-23T09:37:44.006Z,47.03
2023-06-23T09:38:44.026Z,47.42
2023-06-23T09:39:43.996Z,50.30
2023-06-23T09:40:43.989Z,48.80
2023-06-23T09:41:52.090Z,49.12
2023-06-23T09:42:45.974Z,48.32
2023-06-23T09:43:43.978Z,48.18
2023-06-23T09:44:44.007Z,46.30
2023-06-23T09:45:43.957Z,47.99
2023-06-23T09:46:43.954Z,47.63
2023-06-23T09:47:44.020Z,46.46
2023-06-23T09:48:43.977Z,48.68
2023-06-23T09:49:43.946Z,46.99
2023-06-23T09:50:43.924Z,49.31
2023-06-23T09:51:43.949Z,48.70
2023-06-23T09:52:43.935Z,47.36
2023-06-23T09:53:43.899Z,47.22
2023-06-23T09:54:43.918Z,47.27
2023-06-23T09:55:43.885Z,46.67
2023-06-23T09:56:43.878Z,47.04
2023-06-23T09:57:43.889Z,47.57
2023-06-23T09:58:43.861Z,46.65
2023-06-23T09:59:43.862Z,46.42
2023-06-23T10:00:43.854Z,46.56
2023-06-23T10:01:43.928Z,50.05
2023-06-23T10:02:43.893Z,46.99
2023-06-23T10:03:44.014Z,46.98
2023-06-23T10:04:43.826Z,46.95
2023-06-23T10:05:43.808Z,45.15
2023-06-23T10:06:43.859Z,48.56
2023-06-23T10:07:43.795Z,49.10
2023-06-23T10:08:43.795Z,46.22
2023-06-23T10:09:43.791Z,46.30
2023-06-23T10:10:43.770Z,46.22
2023-06-23T10:11:43.792Z,48.44
2023-06-23T10:12:43.761Z,48.71
2023-06-23T10:13:43.764Z,46.07
2023-06-23T10:14:43.762Z,47.70
2023-06-23T10:16:15.667Z,47.51
2023-06-23T10:16:43.729Z,48.88
2023-06-23T10:17:43.837Z,48.50
2023-06-23T10:18:43.737Z,46.00
2023-06-23T10:19:43.712Z,46.41
2023-06-23T10:20:43.737Z,48.53
2023-06-23T10:21:43.700Z,50.45
2023-06-23T10:22:44.717Z,46.44
2023-06-23T10:23:43.694Z,44.45
2023-06-23T10:24:43.677Z,46.70
2023-06-23T10:25:44.748Z,47.14
2023-06-23T10:26:43.702Z,48.46
2023-06-23T10:27:43.702Z,46.03
2023-06-23T10:28:43.671Z,46.42
2023-06-23T10:29:44.869Z,46.31
2023-06-23T10:30:43.640Z,47.79
2023-06-23T10:31:43.677Z,46.62
2023-06-23T10:32:44.053Z,46.57
2023-06-23T10:33:43.624Z,46.04
2023-06-23T10:34:43.610Z,47.45
2023-06-23T10:35:43.683Z,45.51
2023-06-23T10:36:43.692Z,46.72
2023-06-23T10:37:45.831Z,46.18
2023-06-23T10:38:44.643Z,46.33
2023-06-23T10:39:43.593Z,44.90
2023-06-23T10:40:43.571Z,44.79
2023-06-23T10:41:43.560Z,47.73
2023-06-23T10:42:43.550Z,47.86
2023-06-23T10:43:43.582Z,46.73
2023-06-23T10:44:43.557Z,47.69
2023-06-23T10:45:43.566Z,47.89
2023-06-23T10:46:43.521Z,47.58
2023-06-23T10:47:43.525Z,47.42
2023-06-23T10:48:43.551Z,47.61
2023-06-23T10:49:43.512Z,48.51
2023-06-23T10:50:45.602Z,45.55
2023-06-23T10:51:43.511Z,47.60
2023-06-23T10:52:43.696Z,46.25
2023-06-23T10:53:43.516Z,46.49
2023-06-23T10:54:43.465Z,48.18
2023-06-23T10:56:02.394Z,47.37
2023-06-23T10:56:45.499Z,44.84
2023-06-23T10:57:43.462Z,47.77
2023-06-23T10:58:43.474Z,46.46
2023-06-23T10:59:43.435Z,43.49
2023-06-23T11:00:43.429Z,44.06
2023-06-23T11:01:43.503Z,48.10
2023-06-23T11:02:43.587Z,47.76
2023-06-23T11:03:43.427Z,46.64
2023-06-23T11:04:43.471Z,44.75
2023-06-23T11:05:43.429Z,44.77
2023-06-23T11:06:43.375Z,44.87
2023-06-23T11:07:43.388Z,47.09
2023-06-23T11:08:43.378Z,45.28
2023-06-23T11:09:43.356Z,45.78
2023-06-23T11:10:43.354Z,45.58
2023-06-23T11:11:43.356Z,46.61
2023-06-23T11:12:43.349Z,46.25
2023-06-23T11:13:43.509Z,45.51
2023-06-23T11:14:44.321Z,47.06
2023-06-23T11:15:43.312Z,48.20
2023-06-23T11:16:43.328Z,47.70
2023-06-23T11:17:43.367Z,48.97
2023-06-23T11:18:43.288Z,47.16
2023-06-23T11:19:43.285Z,46.67
2023-06-23T11:20:43.276Z,46.93
2023-06-23T11:21:43.316Z,46.19
2023-06-23T11:22:43.260Z,46.60
2023-06-23T11:23:43.262Z,46.39
2023-06-23T11:24:43.279Z,45.55
2023-06-23T11:25:43.749Z,49.41
2023-06-23T11:26:43.263Z,45.78
2023-06-23T11:27:43.221Z,46.84
2023-06-23T11:28:43.213Z,47.04
2023-06-23T11:29:44.417Z,46.18
2023-06-23T11:30:43.289Z,43.47
2023-06-23T11:31:43.207Z,45.16
2023-06-23T11:32:43.240Z,45.04
2023-06-23T11:33:43.200Z,46.04
2023-06-23T11:34:43.200Z,45.27
2023-06-23T11:35:43.187Z,47.80
2023-06-23T11:36:43.171Z,46.85
2023-06-23T11:37:43.158Z,46.40
2023-06-23T11:38:43.163Z,47.20
2023-06-23T11:39:43.166Z,46.03
2023-06-23T11:40:43.143Z,45.26
2023-06-23T11:41:43.121Z,42.68
2023-06-23T11:42:43.122Z,47.58
2023-06-23T11:43:43.111Z,45.79
2023-06-23T11:44:43.130Z,47.04
2023-06-23T11:45:43.092Z,45.68
2023-06-23T11:46:43.105Z,45.50
2023-06-23T11:47:43.095Z,44.44
2023-06-23T11:48:43.079Z,45.86
2023-06-23T11:49:43.081Z,44.55
2023-06-23T11:50:43.060Z,44.92
2023-06-23T11:51:43.048Z,45.07
2023-06-23T11:52:44.298Z,47.40
2023-06-23T11:53:43.069Z,44.57
2023-06-23T11:54:43.029Z,45.34
2023-06-23T11:55:43.030Z,44.33
2023-06-23T11:56:43.017Z,44.37
2023-06-23T11:57:43.020Z,43.97
2023-06-23T11:58:43.040Z,44.61
2023-06-23T11:59:43.009Z,44.43
2023-06-23T12:00:42.985Z,44.08
2023-06-23T12:01:42.982Z,43.65
2023-06-23T12:02:42.999Z,42.50
2023-06-23T12:03:43.105Z,44.67
2023-06-23T12:04:43.082Z,42.61
2023-06-23T12:05:42.959Z,43.96
2023-06-23T12:06:42.956Z,45.19
2023-06-23T12:07:42.971Z,46.52
2023-06-23T12:08:43.002Z,45.23
2023-06-23T12:09:42.929Z,44.59
2023-06-23T12:10:42.904Z,49.06
2023-06-23T12:11:42.911Z,44.80
2023-06-23T12:12:42.941Z,44.72
2023-06-23T12:13:42.900Z,44.99
2023-06-23T12:14:42.893Z,44.37
2023-06-23T12:15:42.883Z,45.37
2023-06-23T12:16:42.910Z,43.71
2023-06-23T12:17:42.889Z,44.73
2023-06-23T12:18:42.853Z,46.74
2023-06-23T12:19:42.952Z,43.75
2023-06-23T12:20:42.859Z,45.19
2023-06-23T12:21:42.855Z,44.53
2023-06-23T12:22:42.823Z,45.80
2023-06-23T12:23:42.822Z,45.27
2023-06-23T12:24:42.809Z,46.18
2023-06-23T12:25:42.810Z,44.46
2023-06-23T12:26:42.830Z,43.81
2023-06-23T12:27:42.786Z,45.30
2023-06-23T12:28:43.813Z,45.02
2023-06-23T12:29:42.778Z,46.99
2023-06-23T12:30:42.799Z,46.44
2023-06-23T12:31:42.804Z,49.80
2023-06-23T12:32:42.781Z,45.05
2023-06-23T12:33:42.757Z,46.43
2023-06-23T12:34:42.746Z,44.76
2023-06-23T12:35:42.744Z,45.06
2023-06-23T12:36:42.736Z,45.19
2023-06-23T12:37:42.712Z,45.46
2023-06-23T12:38:42.747Z,43.53
2023-06-23T12:39:42.700Z,46.93
2023-06-23T12:40:42.728Z,45.77
2023-06-23T12:41:42.697Z,46.08
2023-06-23T12:42:44.485Z,42.26
2023-06-23T12:43:43.690Z,45.30
2023-06-23T12:44:42.669Z,44.56
2023-06-23T12:45:42.977Z,44.59
2023-06-23T12:46:42.802Z,44.06
2023-06-23T12:47:42.657Z,44.20
2023-06-23T12:48:42.639Z,44.59
2023-06-23T12:49:42.654Z,44.64
2023-06-23T12:50:42.669Z,44.96
2023-06-23T12:51:42.611Z,47.07
2023-06-23T12:52:42.608Z,46.36